Time;durP1;ratioP1;P1;durP2;ratioP2;P2;SDS_P1;SDS_P2;PMS_P1;PMS_P2;Temp;Humidity;BMP_temperature;BMP_pressure;BME280_temperature;BME280_humidity;BME280_pressure;Samples;Min_cycle;Max_cycle;Signal;HPM_P1;HPM_P2
2022/12/05 00:00:26;;;;;;;31.10;21.25;;;4.70;99.90;;;;;;4861754;29;20053;-65
2022/12/05 00:02:53;;;;;;;31.35;21.58;;;4.70;99.90;;;;;;4862333;29;20049;-66
2022/12/05 00:05:20;;;;;;;33.75;22.13;;;4.70;99.90;;;;;;4862494;29;20189;-65
2022/12/05 00:07:46;;;;;;;31.20;21.80;;;4.70;99.90;;;;;;4862603;29;20053;-65
2022/12/05 00:10:13;;;;;;;33.30;21.98;;;4.70;99.90;;;;;;4862313;29;20460;-67
2022/12/05 00:12:40;;;;;;;29.85;20.98;;;4.70;99.90;;;;;;4861096;29;20475;-68
2022/12/05 00:15:11;;;;;;;31.58;21.85;;;4.70;99.90;;;;;;4860966;29;20046;-65
2022/12/05 00:17:38;;;;;;;30.55;20.77;;;4.70;99.90;;;;;;4862424;29;20512;-65
2022/12/05 00:20:05;;;;;;;31.17;20.65;;;4.70;99.90;;;;;;4862571;29;20156;-67
2022/12/05 00:22:31;;;;;;;31.52;21.88;;;4.80;99.90;;;;;;4862083;29;20053;-66
2022/12/05 00:24:58;;;;;;;29.90;20.35;;;4.80;99.90;;;;;;4861166;29;20153;-67
2022/12/05 00:27:25;;;;;;;28.65;20.90;;;4.80;99.90;;;;;;4860349;29;20126;-67
2022/12/05 00:29:52;;;;;;;34.17;22.02;;;4.80;99.90;;;;;;4862024;29;20069;-67
2022/12/05 00:32:18;;;;;;;29.60;21.42;;;4.80;99.90;;;;;;4861792;29;20050;-65
2022/12/05 00:34:45;;;;;;;32.88;20.73;;;4.90;99.90;;;;;;4862374;29;20045;-65
2022/12/05 00:37:12;;;;;;;33.15;21.25;;;4.80;99.90;;;;;;4862197;29;20042;-68
2022/12/05 00:39:39;;;;;;;32.75;22.70;;;4.90;99.90;;;;;;4861641;29;20509;-68
2022/12/05 00:42:05;;;;;;;31.00;21.55;;;4.80;99.90;;;;;;4861857;29;20439;-68
2022/12/05 00:44:32;;;;;;;32.33;22.00;;;4.90;99.90;;;;;;4860753;29;20097;-68
2022/12/05 00:46:59;;;;;;;32.00;21.60;;;4.80;99.90;;;;;;4862168;29;20052;-66
2022/12/05 00:49:26;;;;;;;30.25;21.67;;;4.80;99.90;;;;;;4861411;29;20120;-68
2022/12/05 00:51:53;;;;;;;32.80;22.40;;;4.80;99.90;;;;;;4862113;29;20076;-66
2022/12/05 00:54:19;;;;;;;31.92;21.75;;;4.90;99.90;;;;;;4860524;29;20073;-67
2022/12/05 00:56:46;;;;;;;34.33;21.98;;;4.80;99.90;;;;;;4861746;29;20098;-65
2022/12/05 00:59:13;;;;;;;26.42;20.60;;;4.90;99.90;;;;;;4860307;29;20049;-68
2022/12/05 01:01:39;;;;;;;29.33;21.42;;;4.80;99.90;;;;;;4861777;29;20132;-66
2022/12/05 01:04:06;;;;;;;30.13;22.15;;;4.80;99.90;;;;;;4861843;29;20474;-66
2022/12/05 01:06:33;;;;;;;30.05;21.88;;;4.80;99.90;;;;;;4861430;29;20447;-67
2022/12/05 01:09:00;;;;;;;31.48;21.02;;;4.80;99.90;;;;;;4861835;29;20094;-67
2022/12/05 01:11:27;;;;;;;34.63;22.65;;;4.80;99.90;;;;;;4861235;29;20115;-66
2022/12/05 01:13:53;;;;;;;32.45;21.83;;;4.80;99.90;;;;;;4861418;29;20051;-67
2022/12/05 01:16:20;;;;;;;32.55;21.75;;;4.90;99.90;;;;;;4861530;29;20057;-65
2022/12/05 01:18:47;;;;;;;30.63;22.10;;;4.90;99.90;;;;;;4861490;29;20056;-67
2022/12/05 01:21:13;;;;;;;29.77;21.35;;;4.90;99.90;;;;;;4861682;29;20101;-68
2022/12/05 01:23:40;;;;;;;27.98;21.10;;;4.90;99.90;;;;;;4860935;29;20049;-67
2022/12/05 01:26:07;;;;;;;33.95;22.38;;;4.90;99.90;;;;;;4861048;29;20132;-68
2022/12/05 01:28:34;;;;;;;34.08;21.95;;;5.00;99.90;;;;;;4861005;29;20045;-67
2022/12/05 01:31:01;;;;;;;32.38;22.35;;;5.00;99.90;;;;;;4861462;29;20045;-67
2022/12/05 01:33:27;;;;;;;30.60;22.67;;;5.00;99.90;;;;;;4861100;29;20053;-68
2022/12/05 01:35:54;;;;;;;32.30;22.02;;;5.00;99.90;;;;;;4861118;29;20053;-65
2022/12/05 01:38:21;;;;;;;28.60;22.02;;;5.00;99.90;;;;;;4861209;29;20504;-66
2022/12/05 01:40:48;;;;;;;28.80;21.58;;;5.00;99.90;;;;;;4861390;29;20063;-66
2022/12/05 01:43:14;;;;;;;29.98;22.25;;;5.00;99.90;;;;;;4861157;29;20057;-67
2022/12/05 01:45:41;;;;;;;31.65;20.42;;;5.00;99.90;;;;;;4864470;29;20133;-67
2022/12/05 01:48:08;;;;;;;30.33;22.20;;;5.00;99.90;;;;;;4865329;29;20056;-67
2022/12/05 01:50:35;;;;;;;30.73;21.15;;;5.00;99.90;;;;;;4864797;29;20052;-65
2022/12/05 01:53:02;;;;;;;27.77;21.88;;;5.00;99.90;;;;;;4847996;29;20045;-65
2022/12/05 01:55:28;;;;;;;33.58;22.00;;;5.00;99.90;;;;;;4864492;29;20045;-65
2022/12/05 01:57:55;;;;;;;29.50;21.92;;;5.00;99.90;;;;;;4863673;29;20391;-67
2022/12/05 02:00:22;;;;;;;29.50;21.83;;;5.00;99.90;;;;;;4864965;29;20054;-65
2022/12/05 02:02:48;;;;;;;31.33;21.83;;;5.10;99.90;;;;;;4864944;29;20107;-65
2022/12/05 02:05:15;;;;;;;30.27;21.27;;;5.10;99.90;;;;;;4863319;29;20674;-67
2022/12/05 02:07:42;;;;;;;30.33;21.33;;;5.00;99.90;;;;;;4864440;29;20045;-67
2022/12/05 02:10:09;;;;;;;29.35;22.00;;;5.00;99.90;;;;;;4864357;29;20494;-66
2022/12/05 02:12:36;;;;;;;28.58;22.08;;;5.10;99.90;;;;;;4864448;29;20120;-66
2022/12/05 02:15:05;;;;;;;28.30;21.70;;;5.10;99.90;;;;;;4863931;29;20133;-67
2022/12/05 02:17:31;;;;;;;35.78;23.23;;;5.10;99.90;;;;;;4864108;29;20038;-66
2022/12/05 02:19:58;;;;;;;29.58;21.50;;;5.10;99.90;;;;;;4864636;29;20069;-66
2022/12/05 02:22:25;;;;;;;31.83;22.38;;;5.10;99.90;;;;;;4864273;29;20059;-67
2022/12/05 02:24:52;;;;;;;29.42;21.73;;;5.10;99.90;;;;;;4848062;29;20049;-66
2022/12/05 02:27:19;;;;;;;31.38;22.05;;;5.20;99.90;;;;;;4864603;29;20037;-67
2022/12/05 02:29:45;;;;;;;27.98;21.25;;;5.20;99.90;;;;;;4864256;29;20038;-65
2022/12/05 02:32:12;;;;;;;27.88;20.88;;;5.20;99.90;;;;;;4863961;29;20132;-66
2022/12/05 02:34:39;;;;;;;30.30;21.27;;;5.30;99.90;;;;;;4864387;29;20101;-66
2022/12/05 02:37:05;;;;;;;25.85;21.38;;;5.20;99.90;;;;;;4863840;29;20082;-68
2022/12/05 02:39:32;;;;;;;31.30;21.48;;;5.20;99.90;;;;;;4863993;29;20046;-67
2022/12/05 02:41:59;;;;;;;27.77;21.58;;;5.20;99.90;;;;;;4864437;29;20049;-68
2022/12/05 02:44:26;;;;;;;29.17;21.05;;;5.30;99.90;;;;;;4864194;29;20050;-67
2022/12/05 02:46:52;;;;;;;32.13;21.38;;;5.30;99.90;;;;;;4864037;29;20117;-66
2022/12/05 02:49:19;;;;;;;35.08;20.25;;;5.30;99.90;;;;;;4862650;29;20121;-66
2022/12/05 02:51:46;;;;;;;27.17;19.45;;;5.30;99.90;;;;;;4863945;29;20074;-67
2022/12/05 02:54:13;;;;;;;28.00;19.17;;;5.30;99.90;;;;;;4863800;29;20405;-65
2022/12/05 02:56:39;;;;;;;24.83;19.25;;;5.30;99.90;;;;;;4862278;29;20041;-65
2022/12/05 02:59:06;;;;;;;27.00;21.17;;;5.30;99.90;;;;;;4863725;29;20129;-66
2022/12/05 03:01:33;;;;;;;27.20;19.95;;;5.30;99.90;;;;;;4863698;29;20083;-66
2022/12/05 03:04:00;;;;;;;28.85;20.38;;;5.30;99.90;;;;;;4863756;29;20397;-67
2022/12/05 03:06:27;;;;;;;27.25;19.33;;;5.30;99.90;;;;;;4863798;29;20512;-66
2022/12/05 03:08:54;;;;;;;29.73;20.50;;;5.30;99.90;;;;;;4863762;29;20057;-66
2022/12/05 03:11:20;;;;;;;26.52;19.60;;;5.30;99.90;;;;;;4862605;29;20140;-67
2022/12/05 03:13:47;;;;;;;27.67;20.15;;;5.20;99.90;;;;;;4863271;29;20069;-67
2022/12/05 03:16:14;;;;;;;26.33;20.13;;;5.20;99.90;;;;;;4863756;29;20828;-68
2022/12/05 03:18:41;;;;;;;32.67;18.92;;;5.20;99.90;;;;;;4864112;29;20131;-67
2022/12/05 03:21:07;;;;;;;25.25;18.80;;;5.20;99.90;;;;;;4863639;29;20121;-66
2022/12/05 03:23:34;;;;;;;25.50;19.33;;;5.20;99.90;;;;;;4862339;29;20053;-65
2022/12/05 03:26:01;;;;;;;28.70;19.52;;;5.20;99.90;;;;;;4863022;29;20393;-65
2022/12/05 03:28:28;;;;;;;24.63;18.83;;;5.20;99.90;;;;;;4863240;29;20052;-68
2022/12/05 03:30:54;;;;;;;23.45;18.52;;;5.20;99.90;;;;;;4863071;29;20455;-66
2022/12/05 03:33:21;;;;;;;25.20;18.15;;;5.20;99.90;;;;;;4862850;29;20050;-66
2022/12/05 03:35:48;;;;;;;23.70;18.13;;;5.20;99.90;;;;;;4862988;29;20121;-66
2022/12/05 03:38:14;;;;;;;28.15;18.35;;;5.20;99.90;;;;;;4861887;29;20394;-66
2022/12/05 03:40:41;;;;;;;22.90;17.83;;;5.20;99.90;;;;;;4862157;29;20046;-68
2022/12/05 03:43:08;;;;;;;25.45;17.73;;;5.20;99.90;;;;;;4862038;29;20046;-67
2022/12/05 03:45:35;;;;;;;25.55;17.00;;;5.20;99.90;;;;;;4863388;29;20377;-67
2022/12/05 03:48:02;;;;;;;25.98;18.38;;;5.30;99.90;;;;;;4862890;29;20041;-67
2022/12/05 03:50:28;;;;;;;26.85;18.33;;;5.20;99.90;;;;;;4863119;29;20545;-67
2022/12/05 03:52:55;;;;;;;29.80;18.55;;;5.20;99.90;;;;;;4863135;29;20045;-68
2022/12/05 03:55:42;;;;;;;25.60;16.95;;;5.20;99.90;;;;;;4863106;29;20067;-66
2022/12/05 03:58:09;;;;;;;27.27;16.63;;;5.20;99.90;;;;;;4861244;29;20065;-66
2022/12/05 04:00:35;;;;;;;24.00;17.23;;;5.20;99.90;;;;;;4862397;29;20049;-66
2022/12/05 04:03:02;;;;;;;26.65;18.20;;;5.30;99.90;;;;;;4862770;29;20049;-66
2022/12/05 04:05:29;;;;;;;22.38;16.77;;;5.30;99.90;;;;;;4862382;29;20048;-66
2022/12/05 04:07:56;;;;;;;30.52;17.23;;;5.30;99.90;;;;;;4861135;29;20061;-66
2022/12/05 04:10:23;;;;;;;29.92;18.17;;;5.30;99.90;;;;;;4862419;29;20451;-67
2022/12/05 04:12:50;;;;;;;23.98;17.73;;;5.20;99.90;;;;;;4862657;29;20108;-67
2022/12/05 04:15:17;;;;;;;25.90;17.20;;;5.30;99.90;;;;;;4862403;29;20378;-67
2022/12/05 04:17:43;;;;;;;27.77;18.15;;;5.30;99.90;;;;;;4862777;29;20080;-66
2022/12/05 04:23:01;;;;;;;24.33;16.48;;;5.30;99.90;;;;;;4860764;29;20101;-65
2022/12/05 04:25:34;;;;;;;28.45;17.38;;;5.30;99.90;;;;;;4861942;29;20057;-66
2022/12/05 04:28:01;;;;;;;23.83;17.15;;;5.30;99.90;;;;;;4861147;29;20129;-66
2022/12/05 04:30:28;;;;;;;23.55;15.98;;;5.30;99.90;;;;;;4862406;29;20042;-68
2022/12/05 04:32:54;;;;;;;27.63;17.35;;;5.30;99.90;;;;;;4861674;29;20057;-65
2022/12/05 04:35:21;;;;;;;24.13;17.25;;;5.40;99.90;;;;;;4861940;29;20443;-66
2022/12/05 04:37:48;;;;;;;23.85;16.15;;;5.40;99.90;;;;;;4861971;29;20078;-66
2022/12/05 04:40:15;;;;;;;22.42;16.88;;;5.40;99.90;;;;;;4861966;29;20094;-67
2022/12/05 04:42:41;;;;;;;22.02;15.77;;;5.40;99.90;;;;;;4845310;29;20050;-65
2022/12/05 04:45:08;;;;;;;25.17;17.08;;;5.40;99.90;;;;;;4861456;29;20041;-67
2022/12/05 04:47:35;;;;;;;23.80;17.95;;;5.40;99.90;;;;;;4861774;29;20075;-65
2022/12/05 04:50:02;;;;;;;24.90;17.30;;;5.40;99.90;;;;;;4862416;29;20034;-66
2022/12/05 04:52:28;;;;;;;22.95;17.08;;;5.40;99.90;;;;;;4861891;29;20049;-67
2022/12/05 04:54:55;;;;;;;26.70;16.55;;;5.50;99.90;;;;;;4861006;29;20049;-65
2022/12/05 04:57:22;;;;;;;23.33;16.50;;;5.40;99.90;;;;;;4861785;29;20037;-67
2022/12/05 04:59:48;;;;;;;22.63;17.10;;;5.50;99.90;;;;;;4862085;29;20455;-65
2022/12/05 05:02:15;;;;;;;26.02;16.77;;;5.50;99.90;;;;;;4861674;29;20076;-66
2022/12/05 05:04:42;;;;;;;22.60;16.02;;;5.50;99.90;;;;;;4861501;29;20049;-68
2022/12/05 05:07:09;;;;;;;24.45;17.13;;;5.50;99.90;;;;;;4860155;29;20152;-66
2022/12/05 05:09:35;;;;;;;20.38;16.58;;;5.50;99.90;;;;;;4861646;29;20098;-67
2022/12/05 05:12:02;;;;;;;23.45;16.63;;;5.50;99.90;;;;;;4861426;29;20099;-66
2022/12/05 05:14:29;;;;;;;22.73;16.05;;;5.50;99.90;;;;;;4861586;29;20542;-65
2022/12/05 05:16:56;;;;;;;25.15;16.55;;;5.50;99.90;;;;;;4861407;29;20041;-67
2022/12/05 05:19:22;;;;;;;22.20;15.57;;;5.50;99.90;;;;;;4860597;29;20168;-68
2022/12/05 05:21:49;;;;;;;22.08;15.45;;;5.50;99.90;;;;;;4861676;29;20045;-67
2022/12/05 05:24:16;;;;;;;20.13;14.98;;;5.50;99.90;;;;;;4859963;29;20144;-66
2022/12/05 05:26:42;;;;;;;23.10;15.68;;;5.60;99.90;;;;;;4860180;29;20049;-67
2022/12/05 05:29:09;;;;;;;22.73;15.93;;;5.60;99.90;;;;;;4861691;29;20101;-68
2022/12/05 05:31:36;;;;;;;20.67;14.65;;;5.60;99.90;;;;;;4860686;29;20114;-66
2022/12/05 05:34:03;;;;;;;25.55;16.48;;;5.60;99.90;;;;;;4861629;29;20089;-66
2022/12/05 05:36:35;;;;;;;17.48;13.85;;;5.70;99.90;;;;;;4860258;29;20047;-67
2022/12/05 05:39:02;;;;;;;22.25;15.98;;;5.60;99.90;;;;;;4861252;29;20053;-66
2022/12/05 05:41:28;;;;;;;23.35;15.15;;;5.60;99.90;;;;;;4861133;29;20053;-67
2022/12/05 05:43:55;;;;;;;20.98;16.42;;;5.60;99.90;;;;;;4861413;29;20057;-65
2022/12/05 05:46:22;;;;;;;25.05;15.32;;;5.70;99.90;;;;;;4860877;29;20140;-66
2022/12/05 05:48:49;;;;;;;22.50;14.40;;;5.70;99.90;;;;;;4861092;29;20525;-65
2022/12/05 05:51:16;;;;;;;20.80;15.55;;;5.70;99.90;;;;;;4861471;29;20046;-67
2022/12/05 05:53:42;;;;;;;23.13;15.13;;;5.70;99.90;;;;;;4861330;29;20045;-64
2022/12/05 05:56:09;;;;;;;21.13;14.43;;;5.70;99.90;;;;;;4859847;29;20486;-65
2022/12/05 05:58:36;;;;;;;21.13;15.77;;;5.70;99.90;;;;;;4858762;29;20494;-64
2022/12/05 06:01:03;;;;;;;21.88;14.77;;;5.70;99.90;;;;;;4858933;29;20073;-66
2022/12/05 06:03:29;;;;;;;23.65;15.23;;;5.70;99.90;;;;;;4860820;29;20088;-66
2022/12/05 06:05:56;;;;;;;21.65;14.80;;;5.70;99.90;;;;;;4861072;29;20057;-66
2022/12/05 06:08:23;;;;;;;23.08;14.88;;;5.70;99.90;;;;;;4860925;29;20048;-67
2022/12/05 06:10:50;;;;;;;18.98;14.90;;;5.80;99.90;;;;;;4861185;29;20042;-67
2022/12/05 06:13:17;;;;;;;19.88;14.68;;;5.80;99.90;;;;;;4860999;29;20049;-66
2022/12/05 06:15:43;;;;;;;19.58;15.02;;;5.80;99.90;;;;;;4859920;29;20077;-68
2022/12/05 06:18:10;;;;;;;20.85;15.30;;;5.80;99.90;;;;;;4860621;29;20038;-65
2022/12/05 06:20:37;;;;;;;19.63;15.40;;;5.80;99.90;;;;;;4860725;29;20049;-68
2022/12/05 06:23:03;;;;;;;20.30;15.32;;;5.80;99.90;;;;;;4859501;29;20064;-66
2022/12/05 06:25:30;;;;;;;22.92;15.05;;;5.80;99.90;;;;;;4860814;29;20070;-67
2022/12/05 06:27:57;;;;;;;20.75;16.10;;;5.80;99.90;;;;;;4856535;29;20053;-66
2022/12/05 06:30:24;;;;;;;21.60;15.35;;;5.80;99.90;;;;;;4861429;29;20128;-65
2022/12/05 06:32:50;;;;;;;19.52;15.18;;;5.90;99.90;;;;;;4862728;29;20509;-68
2022/12/05 06:35:17;;;;;;;20.55;15.00;;;5.80;99.90;;;;;;4864187;29;20058;-66
2022/12/05 06:37:45;;;;;;;18.80;14.90;;;5.90;99.90;;;;;;4864378;29;20469;-66
2022/12/05 06:40:12;;;;;;;21.55;15.15;;;5.90;99.90;;;;;;4864130;29;20077;-68
2022/12/05 06:42:39;;;;;;;21.17;15.35;;;5.90;99.90;;;;;;4864328;29;20042;-66
2022/12/05 06:45:06;;;;;;;23.25;15.02;;;6.00;99.90;;;;;;4864410;29;20179;-68
2022/12/05 06:47:32;;;;;;;21.45;15.02;;;6.00;99.90;;;;;;4864468;29;20128;-65
2022/12/05 06:49:59;;;;;;;19.20;14.73;;;6.00;99.90;;;;;;4864204;29;20045;-66
2022/12/05 06:52:26;;;;;;;19.70;13.98;;;6.00;99.90;;;;;;4863761;29;20406;-64
2022/12/05 06:54:53;;;;;;;20.02;13.35;;;6.00;99.90;;;;;;4863622;29;20101;-66
2022/12/05 06:57:19;;;;;;;19.52;13.35;;;6.00;99.90;;;;;;4864133;29;20075;-66
2022/12/05 06:59:46;;;;;;;18.25;13.25;;;6.00;99.90;;;;;;4863946;29;20050;-65
2022/12/05 07:02:13;;;;;;;17.48;12.63;;;6.00;99.90;;;;;;4863670;29;20439;-65
2022/12/05 07:04:40;;;;;;;20.10;13.77;;;6.00;99.90;;;;;;4864031;29;20046;-69
2022/12/05 07:07:07;;;;;;;18.65;13.18;;;6.10;99.90;;;;;;4863749;29;20049;-67
2022/12/05 07:10:07;;;;;;;14.88;13.10;;;6.10;99.90;;;;;;4862221;29;20446;-64
2022/12/05 07:12:27;;;;;;;15.25;12.50;;;6.10;99.90;;;;;;4862991;29;20136;-67
2022/12/05 07:14:53;;;;;;;18.85;13.02;;;6.10;99.90;;;;;;4863542;29;20040;-66
2022/12/05 07:17:20;;;;;;;16.95;12.68;;;6.10;99.90;;;;;;4857770;29;20068;-68
2022/12/05 07:19:47;;;;;;;22.42;14.30;;;6.10;99.90;;;;;;4862922;29;20041;-67
2022/12/05 07:22:14;;;;;;;17.65;12.82;;;6.10;99.90;;;;;;4863009;29;20104;-67
2022/12/05 07:24:41;;;;;;;18.55;13.60;;;6.10;99.90;;;;;;4862144;29;20063;-66
2022/12/05 07:27:08;;;;;;;17.95;12.90;;;6.10;99.90;;;;;;4861267;29;20053;-67
2022/12/05 07:29:35;;;;;;;17.48;12.90;;;6.10;99.90;;;;;;4862785;29;20114;-65
2022/12/05 07:32:02;;;;;;;16.58;12.70;;;6.10;99.90;;;;;;4862630;29;20054;-68
2022/12/05 07:34:28;;;;;;;17.17;12.70;;;6.10;99.90;;;;;;4859048;29;20553;-66
2022/12/05 07:36:55;;;;;;;16.55;12.30;;;6.10;99.90;;;;;;4862283;29;20076;-67
2022/12/05 07:39:22;;;;;;;20.17;13.20;;;6.10;99.90;;;;;;4862281;29;20065;-65
2022/12/05 07:41:48;;;;;;;20.25;13.07;;;6.10;99.90;;;;;;4853170;29;20083;-64
2022/12/05 07:44:16;;;;;;;16.88;11.35;;;6.10;99.90;;;;;;4844333;29;20106;-66
2022/12/05 07:46:42;;;;;;;18.48;12.18;;;6.10;99.90;;;;;;4862617;29;20117;-65
2022/12/05 07:49:09;;;;;;;15.98;12.35;;;6.10;99.90;;;;;;4862252;29;20113;-66
2022/12/05 07:51:37;;;;;;;18.17;12.88;;;6.00;99.90;;;;;;4862422;29;20558;-67
2022/12/05 07:54:05;;;;;;;17.05;11.63;;;6.00;99.90;;;;;;4861351;29;20046;-65
2022/12/05 07:56:32;;;;;;;20.42;12.77;;;6.00;99.90;;;;;;4861981;29;20071;-66
2022/12/05 07:58:59;;;;;;;19.80;12.15;;;6.00;99.90;;;;;;4862241;29;20117;-65
2022/12/05 08:01:25;;;;;;;16.30;12.40;;;6.00;99.90;;;;;;4862194;29;20445;-67
2022/12/05 08:03:52;;;;;;;19.65;11.73;;;5.90;99.90;;;;;;4858546;29;20549;-66
2022/12/05 08:06:19;;;;;;;18.65;12.18;;;5.90;99.90;;;;;;4844421;29;20053;-67
2022/12/05 08:08:48;;;;;;;22.52;12.30;;;5.90;99.90;;;;;;4861156;29;20049;-66
2022/12/05 08:11:16;;;;;;;17.25;11.77;;;5.90;99.90;;;;;;4862032;29;20041;-66
2022/12/05 08:13:42;;;;;;;21.67;11.85;;;5.90;99.90;;;;;;4862257;29;20512;-65
2022/12/05 08:16:09;;;;;;;18.70;12.45;;;5.80;99.90;;;;;;4861703;29;20088;-66
2022/12/05 08:18:36;;;;;;;17.88;12.45;;;5.80;99.90;;;;;;4862497;29;20049;-66
2022/12/05 08:21:03;;;;;;;22.27;12.88;;;5.80;99.90;;;;;;4862241;29;20101;-65
2022/12/05 08:23:30;;;;;;;16.90;12.15;;;5.70;99.90;;;;;;4853155;29;20093;-66
2022/12/05 08:25:57;;;;;;;20.05;12.50;;;5.70;99.90;;;;;;4843445;29;20046;-66
2022/12/05 08:28:23;;;;;;;15.88;12.02;;;5.80;99.90;;;;;;4843434;29;20136;-67
2022/12/05 08:30:50;;;;;;;15.38;11.88;;;5.80;99.90;;;;;;4858171;29;20401;-66
2022/12/05 08:33:17;;;;;;;20.15;11.70;;;5.80;99.90;;;;;;4861743;29;20378;-64
2022/12/05 08:35:44;;;;;;;19.45;13.25;;;5.80;99.90;;;;;;4848885;29;20038;-65
2022/12/05 08:38:10;;;;;;;16.17;11.85;;;5.90;99.90;;;;;;4843169;29;20449;-68
2022/12/05 08:40:37;;;;;;;19.77;11.60;;;5.90;99.90;;;;;;4875482;29;20058;-65
2022/12/05 08:43:04;;;;;;;18.60;11.55;;;5.90;99.90;;;;;;4861847;29;20045;-66
2022/12/05 08:45:31;;;;;;;18.98;11.63;;;6.00;99.90;;;;;;4861690;29;20064;-67
2022/12/05 08:47:57;;;;;;;16.02;10.95;;;6.00;99.90;;;;;;4860585;29;20458;-68
2022/12/05 08:50:24;;;;;;;16.90;11.25;;;6.00;99.90;;;;;;4861708;29;20128;-68
2022/12/05 08:52:51;;;;;;;20.50;11.27;;;6.00;99.90;;;;;;4861617;29;20084;-66
2022/12/05 08:55:17;;;;;;;17.13;10.73;;;6.00;99.90;;;;;;4861267;29;20065;-66
2022/12/05 08:57:44;;;;;;;14.98;11.15;;;6.00;99.90;;;;;;4860257;29;20520;-65
2022/12/05 09:00:11;;;;;;;16.13;11.57;;;6.10;99.90;;;;;;4861421;29;20058;-69
2022/12/05 09:02:38;;;;;;;17.80;11.88;;;6.10;99.90;;;;;;4860250;29;20053;-68
2022/12/05 09:05:04;;;;;;;18.13;11.45;;;6.10;99.90;;;;;;4861140;29;20112;-69
2022/12/05 09:07:51;;;;;;;17.85;11.73;;;6.20;99.90;;;;;;4861524;29;20045;-66
2022/12/05 09:10:18;;;;;;;16.85;11.60;;;6.20;99.90;;;;;;4861219;29;20117;-64
2022/12/05 09:12:45;;;;;;;14.77;11.55;;;6.20;99.90;;;;;;4861142;29;20041;-64
2022/12/05 09:15:12;;;;;;;16.25;11.10;;;6.20;99.90;;;;;;4859784;29;20443;-66
2022/12/05 09:17:39;;;;;;;17.42;12.25;;;6.20;99.90;;;;;;4861019;29;20046;-66
2022/12/05 09:20:05;;;;;;;18.45;10.95;;;6.30;99.90;;;;;;4861172;29;20122;-65
2022/12/05 09:22:32;;;;;;;19.25;12.00;;;6.30;99.90;;;;;;4861137;29;20054;-64
2022/12/05 09:25:02;;;;;;;16.30;11.73;;;6.30;99.90;;;;;;4861021;29;20516;-65
2022/12/05 09:27:28;;;;;;;16.85;11.05;;;6.30;99.90;;;;;;4860887;29;20057;-65
2022/12/05 09:29:55;;;;;;;15.00;11.30;;;6.30;99.90;;;;;;4861035;29;20485;-65
2022/12/05 09:32:22;;;;;;;15.20;11.02;;;6.40;99.90;;;;;;4859461;29;20141;-66
2022/12/05 09:34:49;;;;;;;13.68;11.25;;;6.40;99.90;;;;;;4861021;29;20080;-64
2022/12/05 09:37:17;;;;;;;17.80;11.07;;;6.40;99.90;;;;;;4854005;29;20110;-65
2022/12/05 09:40:03;;;;;;;16.13;10.75;;;6.50;99.90;;;;;;4841681;29;20060;-65
2022/12/05 09:42:30;;;;;;;15.23;11.10;;;6.50;99.90;;;;;;4842464;29;20046;-66
2022/12/05 09:44:57;;;;;;;23.48;11.25;;;6.60;99.90;;;;;;4842309;29;20102;-65
2022/12/05 09:47:24;;;;;;;17.13;11.13;;;6.60;99.90;;;;;;4842193;29;20054;-65
2022/12/05 09:49:51;;;;;;;18.42;11.35;;;6.60;99.90;;;;;;4842495;29;20447;-66
2022/12/05 09:52:18;;;;;;;19.50;12.05;;;6.70;99.90;;;;;;4842284;29;20098;-65
2022/12/05 09:54:44;;;;;;;18.52;10.25;;;6.70;99.90;;;;;;4842262;29;20069;-66
2022/12/05 09:57:11;;;;;;;20.25;10.93;;;6.80;99.90;;;;;;4842000;29;20081;-65
2022/12/05 09:59:38;;;;;;;14.50;10.73;;;6.80;99.90;;;;;;4842147;29;20129;-68
2022/12/05 10:02:06;;;;;;;16.98;10.60;;;6.80;99.90;;;;;;4841358;29;20077;-67
2022/12/05 10:04:33;;;;;;;18.85;11.30;;;6.80;99.90;;;;;;4842244;29;20505;-67
2022/12/05 10:07:00;;;;;;;17.70;11.27;;;6.80;99.90;;;;;;4845891;29;20141;-68
2022/12/05 10:09:27;;;;;;;16.58;11.05;;;6.80;99.90;;;;;;4846088;29;20434;-68
2022/12/05 10:11:54;;;;;;;23.35;11.25;;;6.80;99.90;;;;;;4845968;29;20110;-68
2022/12/05 10:14:20;;;;;;;18.08;10.88;;;6.80;99.90;;;;;;4846001;29;20554;-67
2022/12/05 10:16:47;;;;;;;15.73;10.95;;;6.80;99.90;;;;;;4845425;29;20083;-66
2022/12/05 10:19:14;;;;;;;14.23;10.25;;;6.90;99.90;;;;;;4844571;29;20121;-68
2022/12/05 10:21:41;;;;;;;15.85;10.30;;;6.90;99.90;;;;;;4846190;29;20050;-66
2022/12/05 10:24:07;;;;;;;18.92;10.73;;;6.90;99.90;;;;;;4844322;29;20118;-66
2022/12/05 10:26:34;;;;;;;16.25;10.48;;;6.90;99.90;;;;;;4844089;29;20046;-66
2022/12/05 10:29:01;;;;;;;16.60;10.52;;;6.90;99.90;;;;;;4846834;29;20060;-66
2022/12/05 10:31:27;;;;;;;20.30;11.63;;;6.90;99.90;;;;;;4845218;29;20336;-68
2022/12/05 10:33:54;;;;;;;18.88;10.68;;;6.90;99.90;;;;;;4845211;29;20058;-68
2022/12/05 10:36:21;;;;;;;18.40;10.90;;;7.00;99.90;;;;;;4845239;29;20046;-65
2022/12/05 10:38:49;;;;;;;15.68;10.60;;;7.00;99.90;;;;;;4845361;29;20125;-65
2022/12/05 10:41:15;;;;;;;21.73;10.98;;;7.00;99.90;;;;;;4843932;29;20053;-66
2022/12/05 10:43:42;;;;;;;16.35;10.60;;;7.00;99.90;;;;;;4845335;29;20102;-66
2022/12/05 10:46:09;;;;;;;14.48;10.68;;;7.10;99.90;;;;;;4845261;29;20465;-67
2022/12/05 10:48:42;;;;;;;17.23;10.32;;;7.10;99.90;;;;;;4845148;29;20061;-67
2022/12/05 10:51:09;;;;;;;17.42;10.48;;;7.10;99.90;;;;;;4845306;29;20442;-65
2022/12/05 10:53:36;;;;;;;16.70;10.52;;;7.10;99.90;;;;;;4845263;29;20102;-63
2022/12/05 10:56:02;;;;;;;15.98;9.98;;;7.20;99.90;;;;;;4845134;29;20379;-66
2022/12/05 10:58:49;;;;;;;19.70;11.43;;;7.20;99.90;;;;;;4844844;29;20049;-65
2022/12/05 11:01:16;;;;;;;14.52;9.82;;;7.30;99.90;;;;;;4845030;29;20050;-68
2022/12/05 11:03:43;;;;;;;15.55;9.57;;;7.30;99.90;;;;;;4845227;29;20052;-67
2022/12/05 11:06:10;;;;;;;19.30;10.07;;;7.30;99.90;;;;;;4849636;29;20501;-66
2022/12/05 11:08:37;;;;;;;16.67;9.73;;;7.40;99.90;;;;;;4863406;29;20049;-65
2022/12/05 11:11:23;;;;;;;14.07;9.85;;;7.40;99.90;;;;;;4863096;29;20080;-66
2022/12/05 11:13:50;;;;;;;12.20;9.15;;;7.30;99.90;;;;;;4862732;29;20308;-69
2022/12/05 11:16:17;;;;;;;16.05;9.88;;;7.40;99.90;;;;;;4860677;29;20149;-66
2022/12/05 11:18:47;;;;;;;16.05;9.07;;;7.40;99.90;;;;;;4862183;29;20049;-65
2022/12/05 11:21:16;;;;;;;14.80;9.52;;;7.40;99.90;;;;;;4863300;29;20055;-65
2022/12/05 11:23:43;;;;;;;14.65;9.70;;;7.40;99.90;;;;;;4861683;29;20124;-65
2022/12/05 11:26:10;;;;;;;14.77;9.45;;;7.40;99.90;;;;;;4862773;29;20379;-65
2022/12/05 11:28:37;;;;;;;13.80;8.60;;;7.40;99.90;;;;;;4862416;29;20114;-67
2022/12/05 11:31:03;;;;;;;15.82;9.13;;;7.40;99.90;;;;;;4860852;29;20613;-68
2022/12/05 11:33:30;;;;;;;17.17;9.30;;;7.40;99.90;;;;;;4863622;29;20057;-67
2022/12/05 11:35:57;;;;;;;15.25;9.40;;;7.50;99.90;;;;;;4863397;29;20046;-66
2022/12/05 11:38:24;;;;;;;15.73;9.48;;;7.50;99.90;;;;;;4863514;29;20052;-65
2022/12/05 11:40:51;;;;;;;12.55;9.27;;;7.40;99.90;;;;;;4863468;29;20053;-68
2022/12/05 11:43:17;;;;;;;13.95;9.38;;;7.50;99.90;;;;;;4863432;29;20054;-65
2022/12/05 11:45:44;;;;;;;19.02;10.18;;;7.50;99.90;;;;;;4854657;29;20394;-67
2022/12/05 11:48:11;;;;;;;14.20;9.85;;;7.40;99.90;;;;;;4843382;29;20113;-65
2022/12/05 11:50:37;;;;;;;15.15;10.13;;;7.50;99.90;;;;;;4843282;29;20106;-68
2022/12/05 11:53:04;;;;;;;17.35;10.05;;;7.40;99.90;;;;;;4843213;29;20463;-65
2022/12/05 11:55:31;;;;;;;16.98;9.38;;;7.40;99.90;;;;;;4843041;29;20450;-67
2022/12/05 11:57:58;;;;;;;14.88;9.55;;;7.40;99.90;;;;;;4843295;29;20050;-66
2022/12/05 12:00:25;;;;;;;14.40;9.70;;;7.40;99.90;;;;;;4842693;29;20421;-68
2022/12/05 12:02:51;;;;;;;14.40;9.70;;;7.50;99.90;;;;;;4842939;29;20050;-66
2022/12/05 12:05:19;;;;;;;15.15;9.60;;;7.50;99.90;;;;;;4843777;29;20118;-66
2022/12/05 12:07:46;;;;;;;15.27;9.95;;;7.50;99.90;;;;;;4844295;29;20049;-64
2022/12/05 12:10:13;;;;;;;16.60;9.63;;;7.50;99.90;;;;;;4843189;29;20094;-67
2022/12/05 12:12:39;;;;;;;14.45;9.85;;;7.60;99.90;;;;;;4843992;29;20043;-66
2022/12/05 12:15:06;;;;;;;13.90;9.82;;;7.60;99.90;;;;;;4844122;29;20045;-67
2022/12/05 12:17:33;;;;;;;14.30;9.95;;;7.60;99.90;;;;;;4843882;29;20073;-64
2022/12/05 12:20:00;;;;;;;15.60;9.88;;;7.60;99.90;;;;;;4843859;29;20078;-67
2022/12/05 12:22:27;;;;;;;16.83;10.65;;;7.70;99.90;;;;;;4843764;29;20106;-66
2022/12/05 12:24:53;;;;;;;16.75;10.73;;;7.80;99.90;;;;;;4843911;29;20510;-65
2022/12/05 12:27:20;;;;;;;18.17;10.85;;;7.80;99.90;;;;;;4843661;29;20050;-67
2022/12/05 12:29:47;;;;;;;17.65;10.13;;;7.90;99.90;;;;;;4843789;29;20086;-68
2022/12/05 12:32:16;;;;;;;16.05;10.68;;;7.90;99.90;;;;;;4843640;29;20054;-65
2022/12/05 12:34:42;;;;;;;15.25;10.27;;;8.00;99.90;;;;;;4843701;29;20103;-68
2022/12/05 12:37:12;;;;;;;19.02;8.90;;;8.00;99.90;;;;;;4843265;29;20053;-68
2022/12/05 12:39:39;;;;;;;14.05;9.23;;;8.00;99.90;;;;;;4843636;29;20546;-67